Time;durP1;ratioP1;P1;durP2;ratioP2;P2;SDS_P1;SDS_P2;PMS_P1;PMS_P2;Temp;Humidity;BMP_temperature;BMP_pressure;BME280_temperature;BME280_humidity;BME280_pressure;Samples;Min_cycle;Max_cycle;Signal;HPM_P1;HPM_P2
2023/04/15 00:02:21;;;;;;;12.90;5.68;;;;;;;7.17;84.01;100694.44;4896205;29;20084;-73
2023/04/15 00:04:47;;;;;;;8.45;5.72;;;;;;;7.14;84.14;100692.16;4896426;29;20032;-73
2023/04/15 00:07:16;;;;;;;10.13;5.20;;;;;;;7.12;83.95;100693.31;4895095;29;20032;-73
2023/04/15 00:09:43;;;;;;;11.57;5.53;;;;;;;7.12;84.25;100691.50;4878421;29;20122;-73
2023/04/15 00:12:10;;;;;;;11.10;5.95;;;;;;;7.08;84.28;100694.69;4878332;29;20025;-73
2023/04/15 00:14:35;;;;;;;11.65;5.75;;;;;;;7.07;84.08;100691.19;4876959;29;20612;-73
2023/04/15 00:17:02;;;;;;;14.80;6.53;;;;;;;7.06;84.57;100694.03;4878183;29;20133;-73
2023/04/15 00:19:27;;;;;;;12.80;5.70;;;;;;;6.93;84.52;100679.53;4878369;29;20169;-73
2023/04/15 00:21:53;;;;;;;19.02;6.93;;;;;;;6.94;84.16;100689.16;4876806;29;20107;-73
2023/04/15 00:24:18;;;;;;;12.10;5.65;;;;;;;7.00;84.75;100696.41;4878169;29;20037;-73
2023/04/15 00:26:43;;;;;;;14.63;7.68;;;;;;;6.99;84.93;100696.56;4878148;29;20101;-73
2023/04/15 00:29:09;;;;;;;12.68;6.88;;;;;;;6.96;85.10;100702.22;4894860;29;20444;-73
2023/04/15 00:31:34;;;;;;;12.88;6.43;;;;;;;6.96;84.89;100692.44;4896167;29;20051;-73
2023/04/15 00:34:01;;;;;;;12.55;6.40;;;;;;;6.95;84.83;100703.25;4896108;29;20429;-73
2023/04/15 00:36:26;;;;;;;12.20;6.70;;;;;;;6.92;84.76;100693.81;4896052;29;20041;-73
2023/04/15 00:38:52;;;;;;;10.93;6.22;;;;;;;6.93;84.82;100698.09;4895786;29;20080;-73
2023/04/15 00:41:18;;;;;;;13.55;6.80;;;;;;;6.92;84.84;100698.28;4895846;29;20080;-73
2023/04/15 00:43:43;;;;;;;11.13;5.35;;;;;;;6.89;85.37;100702.13;4879031;29;20032;-73
2023/04/15 00:46:10;;;;;;;16.88;7.07;;;;;;;6.89;85.02;100698.63;4895487;29;20041;-73
2023/04/15 00:48:36;;;;;;;14.00;6.53;;;;;;;6.83;85.30;100694.03;4895647;29;20480;-73
2023/04/15 00:51:01;;;;;;;13.35;6.32;;;;;;;6.86;85.09;100704.28;4895522;29;20045;-73
2023/04/15 00:53:26;;;;;;;15.40;6.85;;;;;;;6.83;85.33;100699.34;4878736;29;20028;-73
2023/04/15 00:55:53;;;;;;;12.80;6.43;;;;;;;6.82;85.69;100697.69;4895081;29;20520;-73
2023/04/15 00:58:18;;;;;;;12.30;6.57;;;;;;;6.79;85.99;100701.53;4895458;29;20051;-73
2023/04/15 01:00:45;;;;;;;12.68;6.57;;;;;;;6.76;86.53;100693.94;4895510;29;20872;-73
2023/04/15 01:03:10;;;;;;;10.45;6.95;;;;;;;6.74;86.79;100699.38;4895465;29;20037;-73
2023/04/15 01:05:36;;;;;;;12.55;6.13;;;;;;;6.71;86.69;100697.09;4895631;29;20032;-73
2023/04/15 01:08:01;;;;;;;16.27;7.45;;;;;;;6.72;86.54;100703.22;4895440;29;20537;-73
2023/04/15 01:10:27;;;;;;;16.90;7.97;;;;;;;6.68;86.66;100699.25;4895103;29;20492;-73
2023/04/15 01:12:52;;;;;;;17.48;6.45;;;;;;;6.65;87.03;100692.47;4895504;29;20040;-73
2023/04/15 01:15:19;;;;;;;13.25;7.03;;;;;;;6.63;87.10;100693.66;4878375;29;20146;-73
2023/04/15 01:17:45;;;;;;;15.60;6.30;;;;;;;6.56;87.43;100699.66;4895577;29;20064;-73
2023/04/15 01:20:11;;;;;;;12.82;6.03;;;;;;;6.56;87.30;100707.59;4878170;29;20033;-73
2023/04/15 01:22:37;;;;;;;13.60;6.57;;;;;;;6.50;87.78;100697.72;4878180;29;20180;-73
2023/04/15 01:25:11;;;;;;;14.25;6.88;;;;;;;6.47;87.36;100697.22;4878139;29;20139;-73
2023/04/15 01:27:39;;;;;;;10.45;6.07;;;;;;;6.44;87.83;100693.09;4878074;29;20373;-73
2023/04/15 01:30:07;;;;;;;11.68;7.85;;;;;;;6.43;88.27;100696.75;4894922;29;20040;-73
2023/04/15 01:32:33;;;;;;;15.07;6.80;;;;;;;6.44;87.96;100698.38;4894857;29;20060;-73
2023/04/15 01:34:58;;;;;;;12.07;6.45;;;;;;;6.41;88.48;100693.44;4895100;29;20119;-73
2023/04/15 01:37:25;;;;;;;10.88;6.65;;;;;;;6.34;87.99;100687.19;4894823;29;20056;-73
2023/04/15 01:39:50;;;;;;;11.57;6.07;;;;;;;6.28;88.47;100682.56;4894843;29;20113;-73
2023/04/15 01:42:16;;;;;;;11.82;7.13;;;;;;;6.24;88.67;100687.41;4894737;29;20036;-73
2023/04/15 01:44:41;;;;;;;13.77;7.38;;;;;;;6.23;89.07;100695.50;4877876;29;20043;-73
2023/04/15 01:47:07;;;;;;;15.95;7.30;;;;;;;6.20;89.26;100683.44;4877888;29;20035;-73
2023/04/15 01:49:33;;;;;;;11.40;7.50;;;;;;;6.17;89.43;100691.72;4894459;29;20036;-73
2023/04/15 01:51:58;;;;;;;13.07;6.80;;;;;;;6.13;89.93;100687.75;4894404;29;20045;-73
2023/04/15 01:54:23;;;;;;;13.13;6.85;;;;;;;6.11;90.20;100687.94;4859948;29;20094;-73
2023/04/15 01:56:48;;;;;;;13.85;7.80;;;;;;;6.09;90.46;100683.81;4894236;29;20044;-72
2023/04/15 01:59:14;;;;;;;17.48;7.97;;;;;;;6.07;90.80;100699.88;4894328;29;20033;-73
2023/04/15 02:01:39;;;;;;;13.43;6.63;;;;;;;6.07;90.73;100696.41;4894588;29;20488;-73
2023/04/15 02:04:06;;;;;;;18.55;7.03;;;;;;;6.03;91.21;100695.94;4894561;29;20028;-72
2023/04/15 02:06:31;;;;;;;12.68;6.50;;;;;;;6.05;91.56;100703.69;4893726;29;20028;-73
2023/04/15 02:08:57;;;;;;;13.52;6.80;;;;;;;6.06;91.43;100706.16;4877603;29;20080;-73
2023/04/15 02:11:23;;;;;;;14.82;7.35;;;;;;;6.02;91.38;100706.69;4894270;29;20036;-73
2023/04/15 02:13:49;;;;;;;14.88;7.00;;;;;;;5.99;91.82;100702.53;4894357;29;20036;-73
2023/04/15 02:16:18;;;;;;;14.40;7.15;;;;;;;5.98;92.72;100708.84;4894040;29;20072;-73
2023/04/15 02:18:45;;;;;;;14.68;7.45;;;;;;;5.92;92.29;100707.69;4894279;29;20555;-72
2023/04/15 02:21:11;;;;;;;14.00;7.22;;;;;;;5.92;92.54;100704.19;4894117;29;20033;-73
2023/04/15 02:23:36;;;;;;;14.82;7.25;;;;;;;5.91;92.66;100713.13;4880406;29;20041;-73
2023/04/15 02:26:02;;;;;;;12.32;6.40;;;;;;;5.84;93.65;100699.75;4876319;29;20048;-73
2023/04/15 02:28:27;;;;;;;11.55;5.95;;;;;;;5.83;93.67;100706.03;4876454;29;20051;-73
2023/04/15 02:30:55;;;;;;;13.30;6.78;;;;;;;5.85;93.83;100714.63;4876333;29;20037;-73
2023/04/15 02:33:20;;;;;;;13.20;6.43;;;;;;;5.83;93.81;100713.16;4876310;29;20029;-73
2023/04/15 02:35:46;;;;;;;15.48;6.53;;;;;;;5.81;94.73;100715.97;4875074;29;20036;-73
2023/04/15 02:38:11;;;;;;;14.00;6.43;;;;;;;5.83;94.82;100718.44;4859488;29;20510;-73
2023/04/15 02:40:36;;;;;;;14.73;7.30;;;;;;;5.78;94.64;100713.66;4876058;29;20033;-73
2023/04/15 02:43:02;;;;;;;18.17;6.85;;;;;;;5.78;95.37;100720.78;4875981;29;20033;-72
2023/04/15 02:45:27;;;;;;;15.02;6.32;;;;;;;5.74;95.42;100716.78;4876569;29;20401;-72
2023/04/15 02:47:53;;;;;;;16.13;8.60;;;;;;;5.76;95.39;100717.47;4874942;29;20173;-72
2023/04/15 02:50:19;;;;;;;16.60;6.90;;;;;;;5.77;95.98;100725.25;4875942;29;20398;-73
2023/04/15 02:52:45;;;;;;;13.85;7.78;;;;;;;5.73;95.87;100726.56;4875870;29;20037;-72
2023/04/15 02:55:11;;;;;;;11.90;5.82;;;;;;;5.70;96.03;100719.78;4876005;29;20047;-72
2023/04/15 02:57:38;;;;;;;16.60;7.95;;;;;;;5.75;96.57;100729.88;4876079;29;20061;-72
2023/04/15 03:00:04;;;;;;;14.60;7.40;;;;;;;5.69;96.61;100726.09;4876038;29;20108;-72
2023/04/15 03:02:34;;;;;;;14.63;8.40;;;;;;;5.72;97.13;100730.22;4893534;29;20028;-72
2023/04/15 03:05:00;;;;;;;14.68;7.53;;;;;;;5.72;97.00;100738.16;4893878;29;20035;-72
2023/04/15 03:07:25;;;;;;;11.23;7.00;;;;;;;5.66;97.20;100725.59;4877095;29;20040;-72
2023/04/15 03:09:51;;;;;;;13.63;6.97;;;;;;;5.66;97.43;100734.34;4893821;29;20068;-72
2023/04/15 03:12:16;;;;;;;12.25;5.80;;;;;;;5.63;98.13;100734.69;4876803;29;20071;-72
2023/04/15 03:14:42;;;;;;;13.50;6.85;;;;;;;5.60;98.38;100734.19;4893753;29;20036;-72
2023/04/15 03:17:07;;;;;;;14.32;7.43;;;;;;;5.57;98.99;100727.41;4893614;29;20072;-72
2023/04/15 03:19:32;;;;;;;14.52;8.05;;;;;;;5.57;98.80;100729.25;4897154;29;20040;-72
2023/04/15 03:21:58;;;;;;;15.32;6.70;;;;;;;5.53;99.53;100725.25;4897276;29;21119;-72
2023/04/15 03:24:23;;;;;;;13.43;7.43;;;;;;;5.59;98.74;100737.84;4880429;29;20044;-72
2023/04/15 03:26:49;;;;;;;16.73;7.93;;;;;;;5.59;99.26;100735.19;4897238;29;20041;-72
2023/04/15 03:29:14;;;;;;;15.52;7.85;;;;;;;5.54;99.69;100729.56;4897138;29;20123;-72
2023/04/15 03:31:40;;;;;;;14.20;6.50;;;;;;;5.57;99.58;100732.69;4864565;29;20040;-72
2023/04/15 03:34:06;;;;;;;14.88;7.90;;;;;;;5.59;100.00;100740.47;4880162;29;20068;-72
2023/04/15 03:36:34;;;;;;;12.75;6.63;;;;;;;5.54;100.00;100735.69;4896874;29;20028;-72
2023/04/15 03:39:01;;;;;;;18.25;8.90;;;;;;;5.54;100.00;100733.03;4896947;29;20068;-72
2023/04/15 03:41:27;;;;;;;14.18;7.32;;;;;;;5.57;100.00;100742.47;4896851;29;20056;-72
2023/04/15 03:43:53;;;;;;;16.13;7.88;;;;;;;5.57;100.00;100748.56;4896954;29;20381;-72
2023/04/15 03:46:18;;;;;;;14.68;6.70;;;;;;;5.55;100.00;100744.44;4896631;29;20036;-72
2023/04/15 03:48:44;;;;;;;15.23;7.65;;;;;;;5.58;100.00;100750.25;4896817;29;20469;-72
2023/04/15 03:51:09;;;;;;;19.52;8.18;;;;;;;5.59;100.00;100751.06;4896699;29;20459;-72
2023/04/15 03:53:35;;;;;;;18.17;8.18;;;;;;;5.56;100.00;100756.69;4879766;29;20043;-72
2023/04/15 03:56:00;;;;;;;15.10;8.02;;;;;;;5.55;100.00;100765.59;4896571;29;20031;-73
2023/04/15 03:58:25;;;;;;;19.13;8.30;;;;;;;5.53;100.00;100770.22;4879696;29;20477;-72
2023/04/15 04:00:51;;;;;;;19.30;8.85;;;;;;;5.52;100.00;100769.41;4896698;29;20037;-73
2023/04/15 04:03:16;;;;;;;19.52;7.03;;;;;;;5.51;100.00;100767.75;4896517;29;20036;-72
2023/04/15 04:05:43;;;;;;;14.75;7.10;;;;;;;5.54;100.00;100777.19;4896527;29;20044;-72
2023/04/15 04:08:09;;;;;;;16.00;7.82;;;;;;;5.53;100.00;100786.09;4896406;29;20092;-73
2023/04/15 04:10:34;;;;;;;12.35;6.75;;;;;;;5.53;100.00;100786.94;4896367;29;20457;-73
2023/04/15 04:13:00;;;;;;;16.20;8.45;;;;;;;5.54;100.00;100793.06;4896492;29;20111;-72
2023/04/15 04:15:26;;;;;;;14.90;7.40;;;;;;;5.51;100.00;100794.22;4896233;29;20048;-72
2023/04/15 04:17:51;;;;;;;15.50;7.22;;;;;;;5.49;100.00;100799.66;4896234;29;20136;-73
2023/04/15 04:20:17;;;;;;;12.60;6.95;;;;;;;5.48;100.00;100805.94;4896176;29;20040;-72
2023/04/15 04:22:42;;;;;;;16.45;7.40;;;;;;;5.46;100.00;100809.75;4896219;29;20036;-72
2023/04/15 04:25:09;;;;;;;13.35;9.02;;;;;;;5.41;100.00;100812.06;4896129;29;20036;-72
2023/04/15 04:27:35;;;;;;;17.08;7.25;;;;;;;5.40;100.00;100815.72;4896161;29;20024;-72
2023/04/15 04:30:00;;;;;;;15.80;7.82;;;;;;;5.36;100.00;100811.72;4895232;29;20374;-72
2023/04/15 04:32:26;;;;;;;15.10;7.47;;;;;;;5.30;100.00;100812.38;4895883;29;20072;-72
2023/04/15 04:34:52;;;;;;;15.52;8.13;;;;;;;5.30;100.00;100822.97;4877992;29;20029;-72
2023/04/15 04:37:17;;;;;;;15.98;7.80;;;;;;;5.30;100.00;100823.78;4877956;29;20398;-72
2023/04/15 04:39:42;;;;;;;13.70;7.40;;;;;;;5.27;100.00;100835.50;4878015;29;20029;-72
2023/04/15 04:42:07;;;;;;;15.95;8.13;;;;;;;5.26;100.00;100835.66;4877894;29;20029;-72
2023/04/15 04:44:33;;;;;;;16.40;7.50;;;;;;;5.25;100.00;100841.94;4861151;29;20068;-72
2023/04/15 04:46:58;;;;;;;13.45;7.82;;;;;;;5.24;100.00;100837.66;4877850;29;20507;-72
2023/04/15 04:49:23;;;;;;;15.55;7.60;;;;;;;5.23;100.00;100847.38;4895240;29;20111;-72
2023/04/15 04:51:50;;;;;;;15.43;7.32;;;;;;;5.19;100.00;100843.44;4895377;29;20127;-72
2023/04/15 04:54:16;;;;;;;13.88;8.10;;;;;;;5.20;100.00;100852.19;4895568;29;20036;-72
2023/04/15 04:56:41;;;;;;;16.10;7.53;;;;;;;5.18;100.00;100849.69;4895425;29;20025;-73
2023/04/15 04:59:07;;;;;;;16.45;8.45;;;;;;;5.19;100.00;100853.19;4895440;29;20040;-72
2023/04/15 05:01:33;;;;;;;14.73;7.63;;;;;;;5.18;100.00;100856.78;4895222;29;20029;-72
2023/04/15 05:03:59;;;;;;;13.45;7.07;;;;;;;5.17;100.00;100849.88;4895444;29;20489;-72
2023/04/15 05:06:24;;;;;;;19.83;8.70;;;;;;;5.16;100.00;100862.25;4876010;29;20037;-72
2023/04/15 05:08:50;;;;;;;15.05;7.45;;;;;;;5.15;100.00;100860.59;4860730;29;20036;-72
2023/04/15 05:11:15;;;;;;;19.45;8.63;;;;;;;5.23;100.00;100871.19;4877319;29;20097;-72
2023/04/15 05:13:41;;;;;;;20.05;9.13;;;;;;;5.25;100.00;100877.16;4877312;29;20058;-72
2023/04/15 05:16:07;;;;;;;17.17;7.80;;;;;;;5.31;100.00;100875.66;4877104;29;20053;-72
2023/04/15 05:18:32;;;;;;;19.80;7.95;;;;;;;5.35;100.00;100884.94;4877308;29;20033;-72
2023/04/15 05:20:58;;;;;;;15.93;8.38;;;;;;;5.39;100.00;100885.44;4894610;29;20055;-72
2023/04/15 05:23:23;;;;;;;17.10;8.68;;;;;;;5.48;100.00;100889.78;4894934;29;20041;-72
2023/04/15 05:25:49;;;;;;;17.98;9.00;;;;;;;5.54;100.00;100889.13;4895110;29;20043;-72
2023/04/15 05:28:15;;;;;;;18.92;9.23;;;;;;;5.72;100.00;100891.63;4894849;29;20021;-72
2023/04/15 05:30:40;;;;;;;17.10;9.63;;;;;;;5.81;100.00;100895.91;4894912;29;20112;-72
2023/04/15 05:33:06;;;;;;;20.38;10.23;;;;;;;6.02;100.00;100905.22;4894961;29;20477;-72
2023/04/15 05:35:31;;;;;;;18.02;8.13;;;;;;;6.14;100.00;100911.84;4894576;29;20225;-72
2023/04/15 05:37:56;;;;;;;14.13;7.82;;;;;;;6.21;100.00;100914.66;4876747;29;20052;-72
2023/04/15 05:40:22;;;;;;;14.20;7.63;;;;;;;6.19;100.00;100914.84;4876502;29;20036;-72
2023/04/15 05:42:47;;;;;;;15.77;7.65;;;;;;;6.18;100.00;100928.22;4876952;29;20037;-72
2023/04/15 05:45:13;;;;;;;15.57;7.90;;;;;;;6.07;100.00;100916.16;4859928;29;20031;-72
2023/04/15 05:47:38;;;;;;;18.05;8.52;;;;;;;6.06;100.00;100935.69;4876623;29;20369;-72
2023/04/15 05:50:04;;;;;;;13.00;6.80;;;;;;;5.99;100.00;100935.50;4876457;29;20072;-73
2023/04/15 05:52:30;;;;;;;14.50;7.68;;;;;;;5.97;100.00;100924.25;4876561;29;20048;-73
2023/04/15 05:54:56;;;;;;;13.68;7.13;;;;;;;6.03;100.00;100936.03;4893991;29;20033;-72
2023/04/15 05:57:21;;;;;;;15.18;8.65;;;;;;;6.04;100.00;100938.50;4894391;29;20646;-73
2023/04/15 05:59:47;;;;;;;16.75;8.30;;;;;;;6.04;100.00;100937.66;4894430;29;20107;-72
2023/04/15 06:02:13;;;;;;;16.45;8.02;;;;;;;6.06;100.00;100954.22;4894126;29;20027;-72
2023/04/15 06:04:38;;;;;;;15.77;7.20;;;;;;;5.98;100.00;100933.03;4894078;29;20036;-73
2023/04/15 06:07:04;;;;;;;13.13;7.07;;;;;;;6.08;100.00;100953.06;4877498;29;20036;-72
2023/04/15 06:09:29;;;;;;;16.90;7.82;;;;;;;6.11;100.00;100951.91;4876315;29;20036;-72
2023/04/15 06:11:56;;;;;;;14.43;8.15;;;;;;;6.15;100.00;100951.38;4876112;29;20046;-72
2023/04/15 06:14:22;;;;;;;15.95;8.38;;;;;;;6.23;100.00;100961.16;4876349;29;20041;-72
2023/04/15 06:16:47;;;;;;;18.90;8.68;;;;;;;6.26;100.00;100962.66;4876156;29;20545;-72
2023/04/15 06:19:13;;;;;;;16.65;7.60;;;;;;;6.35;100.00;100972.28;4878680;29;20033;-72
2023/04/15 06:21:38;;;;;;;17.15;8.43;;;;;;;6.31;100.00;100970.94;4894188;29;20575;-72
2023/04/15 06:24:04;;;;;;;16.33;8.85;;;;;;;6.34;100.00;100975.88;4894188;29;20047;-72
2023/04/15 06:26:30;;;;;;;17.92;7.90;;;;;;;6.41;100.00;100992.78;4894128;29;20033;-72
2023/04/15 06:28:55;;;;;;;17.00;9.18;;;;;;;6.41;100.00;100991.97;4894068;29;20044;-72
2023/04/15 06:31:21;;;;;;;14.65;8.10;;;;;;;6.52;100.00;100996.91;4894014;29;20552;-72
2023/04/15 06:33:47;;;;;;;17.55;7.95;;;;;;;6.56;100.00;101006.22;4894100;29;20039;-72
2023/04/15 06:36:12;;;;;;;15.90;8.18;;;;;;;6.62;100.00;101002.88;4894113;29;20028;-72
2023/04/15 06:38:37;;;;;;;16.30;8.40;;;;;;;6.62;100.00;100999.41;4877239;29;20127;-72
2023/04/15 06:41:03;;;;;;;16.02;8.23;;;;;;;6.78;100.00;101015.28;4894132;29;20036;-72
2023/04/15 06:43:29;;;;;;;17.20;8.57;;;;;;;6.88;100.00;101017.75;4894036;29;20067;-72
2023/04/15 06:45:55;;;;;;;16.70;7.95;;;;;;;7.06;100.00;101018.38;4877247;29;20040;-72
2023/04/15 06:48:21;;;;;;;16.55;8.95;;;;;;;7.20;100.00;101014.19;4893993;29;20092;-72
2023/04/15 06:50:47;;;;;;;18.08;9.35;;;;;;;7.42;100.00;101023.25;4893876;29;20029;-73
2023/04/15 06:53:12;;;;;;;17.65;7.90;;;;;;;7.64;100.00;101038.41;4895243;29;20088;-72
2023/04/15 06:55:37;;;;;;;19.05;9.10;;;;;;;7.83;100.00;101036.34;4897668;29;20037;-72
2023/04/15 06:58:03;;;;;;;23.17;9.35;;;;;;;7.98;100.00;101041.75;4897551;29;20032;-71
2023/04/15 07:00:29;;;;;;;17.92;9.60;;;;;;;8.09;99.85;101044.00;4894442;29;20480;-72
2023/04/15 07:02:55;;;;;;;17.55;8.40;;;;;;;7.92;100.00;101042.44;4863093;29;20061;-73
2023/04/15 07:05:20;;;;;;;15.65;8.57;;;;;;;7.86;100.00;101050.09;4879729;29;20033;-73
2023/04/15 07:07:46;;;;;;;18.02;8.52;;;;;;;7.85;100.00;101051.09;4879813;29;20060;-72
2023/04/15 07:10:11;;;;;;;16.90;9.55;;;;;;;7.91;100.00;101057.53;4878332;29;20079;-72
2023/04/15 07:12:36;;;;;;;17.27;8.50;;;;;;;7.95;100.00;101052.72;4886374;29;20068;-73
2023/04/15 07:15:02;;;;;;;17.55;8.55;;;;;;;7.98;99.59;101057.69;4879505;29;20045;-73
2023/04/15 07:17:28;;;;;;;15.90;7.78;;;;;;;7.95;100.00;101032.28;4879179;29;20064;-73
2023/04/15 07:19:53;;;;;;;19.38;11.35;;;;;;;8.29;100.00;101069.09;4877995;29;20033;-71
2023/04/15 07:22:19;;;;;;;15.98;7.75;;;;;;;8.39;99.66;101068.91;4879171;29;20092;-74
2023/04/15 07:24:45;;;;;;;17.48;8.40;;;;;;;8.48;97.95;101075.81;4879224;29;20028;-73
2023/04/15 07:27:10;;;;;;;14.50;8.10;;;;;;;8.53;97.53;101078.75;4864232;29;20082;-72
2023/04/15 07:29:36;;;;;;;16.85;8.63;;;;;;;8.77;96.53;101080.41;4895157;29;20033;-73
2023/04/15 07:32:01;;;;;;;15.27;7.75;;;;;;;9.04;95.82;101098.63;4896663;29;20060;-72
2023/04/15 07:34:27;;;;;;;16.45;8.68;;;;;;;9.33;94.04;101090.72;4896962;29;20064;-72
2023/04/15 07:36:53;;;;;;;15.38;7.57;;;;;;;9.75;92.57;101089.22;4896715;29;20473;-72
2023/04/15 07:39:18;;;;;;;14.98;8.45;;;;;;;10.10;91.01;101100.91;4896816;29;20060;-72
2023/04/15 07:41:43;;;;;;;14.18;7.65;;;;;;;10.64;87.29;101098.88;4879564;29;20029;-72
2023/04/15 07:44:09;;;;;;;14.98;7.63;;;;;;;10.52;85.84;101107.34;4896858;29;20036;-72
2023/04/15 07:46:36;;;;;;;16.52;8.30;;;;;;;10.27;86.93;101108.69;4879854;29;20075;-72
2023/04/15 07:49:01;;;;;;;15.30;7.40;;;;;;;10.13;87.70;101109.56;4896795;29;20396;-71
2023/04/15 07:51:28;;;;;;;13.40;7.40;;;;;;;10.12;88.29;101107.91;4879932;29;20036;-72
2023/04/15 07:53:53;;;;;;;12.68;6.40;;;;;;;10.17;89.25;101103.69;4879951;29;20033;-72
2023/04/15 07:56:19;;;;;;;14.32;7.38;;;;;;;10.74;86.52;101118.00;4896485;29;20033;-72
2023/04/15 07:58:44;;;;;;;14.88;6.93;;;;;;;11.33;83.18;101116.88;4896691;29;20032;-72
2023/04/15 08:01:10;;;;;;;13.75;7.28;;;;;;;12.04;78.73;101120.16;4896217;29;20499;-72
2023/04/15 08:03:36;;;;;;;14.35;7.38;;;;;;;13.21;75.07;101130.66;4869744;29;20069;-73
2023/04/15 08:06:01;;;;;;;10.00;5.35;;;;;;;13.47;68.55;101136.00;4877587;29;20438;-72
2023/04/15 08:08:27;;;;;;;9.68;4.97;;;;;;;13.34;67.56;101136.84;4878277;29;20029;-72
2023/04/15 08:10:52;;;;;;;9.65;4.53;;;;;;;13.61;66.04;101127.94;4878248;29;20037;-72
2023/04/15 08:13:18;;;;;;;8.02;4.70;;;;;;;13.72;64.44;101132.66;4878471;29;20033;-73
2023/04/15 08:15:43;;;;;;;9.63;4.32;;;;;;;14.03;63.20;101145.34;4878053;29;20044;-73
2023/04/15 08:18:09;;;;;;;9.35;4.40;;;;;;;14.45;61.98;101141.22;4896259;29;20067;-72
2023/04/15 08:20:35;;;;;;;8.32;4.57;;;;;;;14.71;61.85;101128.69;4896062;29;20036;-72
2023/04/15 08:23:02;;;;;;;10.65;5.00;;;;;;;14.86;58.75;101136.44;4895992;29;20027;-72
2023/04/15 08:25:28;;;;;;;8.82;4.72;;;;;;;14.82;60.04;101135.22;4889846;29;20025;-71
2023/04/15 08:27:56;;;;;;;7.85;3.78;;;;;;;15.21;58.80;101154.78;4877790;29;20041;-72
2023/04/15 08:30:21;;;;;;;8.63;3.90;;;;;;;15.18;57.33;101160.59;4877700;29;20062;-71
2023/04/15 08:32:50;;;;;;;9.48;4.38;;;;;;;14.28;58.75;101161.53;4878929;29;20032;-71
2023/04/15 08:35:15;;;;;;;8.73;4.20;;;;;;;13.92;60.32;101151.38;4895963;29;20032;-72
2023/04/15 08:37:41;;;;;;;7.20;3.92;;;;;;;14.06;60.41;101168.22;4895591;29;20499;-73
2023/04/15 08:40:08;;;;;;;8.10;4.63;;;;;;;13.91;61.62;101171.16;4878675;29;20172;-73
2023/04/15 08:42:42;;;;;;;8.75;4.32;;;;;;;13.26;64.23;101179.06;4878652;29;20033;-73
2023/04/15 08:45:10;;;;;;;7.55;4.22;;;;;;;12.61;64.85;101178.78;4895484;29;20070;-73
2023/04/15 08:47:37;;;;;;;10.18;4.80;;;;;;;12.00;68.09;101200.97;4878689;29;20073;-73
2023/04/15 08:50:04;;;;;;;11.35;5.15;;;;;;;11.50;69.68;101184.16;4895355;29;20028;-73
2023/04/15 08:52:30;;;;;;;8.52;4.10;;;;;;;11.33;72.34;101187.13;4878368;29;20480;-73
2023/04/15 08:55:00;;;;;;;10.05;4.60;;;;;;;11.27;72.00;101209.25;4895623;29;20052;-73
2023/04/15 08:57:27;;;;;;;7.50;4.38;;;;;;;11.05;72.66;101213.75;4895251;29;20029;-73
2023/04/15 08:59:55;;;;;;;11.45;4.43;;;;;;;10.89;74.04;101204.16;4895295;29;20035;-73
2023/04/15 09:02:21;;;;;;;6.13;3.85;;;;;;;10.89;72.22;101201.50;4895372;29;20039;-73
2023/04/15 09:04:46;;;;;;;8.60;4.63;;;;;;;10.78;74.20;101219.84;4878403;29;20060;-73
2023/04/15 09:07:12;;;;;;;9.20;4.70;;;;;;;10.79;75.43;101208.16;4895475;29;20151;-73
2023/04/15 09:09:39;;;;;;;11.13;5.25;;;;;;;10.83;76.09;101215.59;4895454;29;20083;-73
2023/04/15 09:12:04;;;;;;;9.75;5.40;;;;;;;10.88;75.47;101223.88;4894888;29;20476;-73
2023/04/15 09:14:32;;;;;;;8.98;4.07;;;;;;;10.89;74.50;101228.19;4894588;29;20036;-73
2023/04/15 09:17:00;;;;;;;9.02;4.50;;;;;;;10.95;75.21;101231.94;4894608;29;20048;-73
2023/04/15 09:19:26;;;;;;;7.93;4.30;;;;;;;11.06;75.07;101244.78;4894927;29;20444;-74
2023/04/15 09:21:58;;;;;;;8.50;3.72;;;;;;;11.15;73.44;101234.81;4895058;29;20029;-73
2023/04/15 09:24:25;;;;;;;6.90;3.88;;;;;;;11.22;72.54;101242.91;4894797;29;20036;-73
2023/04/15 09:26:53;;;;;;;6.03;3.33;;;;;;;11.22;72.43;101241.03;4894470;29;20380;-73
2023/04/15 09:29:19;;;;;;;6.93;3.83;;;;;;;11.27;71.40;101227.13;4878209;29;20572;-73
2023/04/15 09:31:44;;;;;;;8.18;4.28;;;;;;;11.49;71.30;101246.63;4894156;29;20377;-73
2023/04/15 09:34:10;;;;;;;10.52;5.20;;;;;;;11.58;70.91;101254.31;4894456;29;20035;-73
2023/04/15 09:36:51;;;;;;;9.07;4.15;;;;;;;11.63;72.50;101259.03;4894390;29;20464;-73
2023/04/15 09:39:16;;;;;;;9.60;4.55;;;;;;;11.56;70.07;101244.81;4863896;29;20037;-73
2023/04/15 09:41:43;;;;;;;9.80;4.22;;;;;;;11.65;70.70;101258.88;4892959;29;20033;-73
2023/04/15 09:44:23;;;;;;;14.43;4.45;;;;;;;11.68;71.15;101248.59;4893662;29;20372;-73
2023/04/15 09:46:48;;;;;;;8.38;4.03;;;;;;;11.84;69.70;101259.03;4893606;29;20037;-73
2023/04/15 09:49:14;;;;;;;7.60;4.15;;;;;;;11.80;69.68;101262.28;4877157;29;20088;-73
2023/04/15 09:51:40;;;;;;;6.85;3.78;;;;;;;11.86;68.93;101269.53;4893373;29;20091;-73
2023/04/15 09:54:06;;;;;;;8.93;3.88;;;;;;;11.83;69.24;101269.91;4894435;29;20040;-73
2023/04/15 09:56:36;;;;;;;8.27;3.92;;;;;;;11.81;69.53;101272.75;4862179;29;20036;-73
2023/04/15 09:59:02;;;;;;;8.27;4.05;;;;;;;11.78;68.12;101275.81;4894217;29;20416;-73
2023/04/15 10:01:28;;;;;;;7.30;3.85;;;;;;;11.79;70.28;101285.50;4893982;29;20063;-73
2023/04/15 10:03:57;;;;;;;8.25;3.95;;;;;;;11.83;70.18;101277.91;4894330;29;20417;-73
2023/04/15 10:06:28;;;;;;;5.75;3.75;;;;;;;11.92;68.17;101290.16;4894341;29;20063;-73
2023/04/15 10:08:54;;;;;;;;;;;;;;;11.95;69.62;101288.94;4894763;29;20124;-73
2023/04/15 10:11:22;;;;;;;7.47;3.55;;;;;;;11.92;69.23;101289.31;4894145;29;20518;-73
2023/04/15 10:13:49;;;;;;;4.10;2.80;;;;;;;11.92;67.45;101279.47;4894144;29;20067;-73
2023/04/15 10:16:18;;;;;;;3.45;2.42;;;;;;;11.83;66.53;101280.59;4893990;29;20064;-73
2023/04/15 10:18:45;;;;;;;3.63;2.53;;;;;;;11.82;65.08;101295.81;4893947;29;20040;-73
2023/04/15 10:21:12;;;;;;;4.88;2.95;;;;;;;11.83;67.08;101285.94;4893969;29;20027;-73
2023/04/15 10:23:38;;;;;;;3.78;2.15;;;;;;;11.96;65.19;101302.09;4877184;29;20552;-73
2023/04/15 10:26:05;;;;;;;5.20;2.67;;;;;;;11.88;65.26;101288.06;4894123;29;20060;-73
2023/04/15 10:28:30;;;;;;;3.67;2.08;;;;;;;11.91;64.87;101288.47;4893381;29;20036;-73
2023/04/15 10:30:57;;;;;;;3.35;2.60;;;;;;;11.99;66.33;101285.66;4877342;29;20652;-73
2023/04/15 10:33:24;;;;;;;3.08;2.30;;;;;;;12.12;65.78;101300.97;4876092;29;20040;-73
2023/04/15 10:35:51;;;;;;;6.25;2.42;;;;;;;12.12;67.01;101278.75;4894124;29;20861;-73
2023/04/15 10:38:44;;;;;;;2.75;2.20;;;;;;;12.35;66.08;101300.69;4894076;29;20544;-72
2023/04/15 10:41:15;;;;;;;3.83;2.33;;;;;;;12.27;64.31;101311.56;4876097;29;20489;-73
2023/04/15 10:44:03;;;;;;;2.90;1.95;;;;;;;12.10;66.00;101308.34;4888459;29;20169;-77
2023/04/15 10:46:36;;;;;;;9.95;2.42;;;;;;;12.12;66.12;101303.63;4879331;29;20036;-76
2023/04/15 10:49:16;;;;;;;3.70;2.17;;;;;;;12.19;66.48;101307.19;4878418;29;20517;-75
2023/04/15 10:51:43;;;;;;;3.83;2.53;;;;;;;12.38;65.97;101302.97;4877916;29;20043;-77
2023/04/15 10:54:15;;;;;;;5.38;2.83;;;;;;;12.56;66.22;101304.31;4879337;29;20037;-76
2023/04/15 10:56:42;;;;;;;3.95;2.10;;;;;;;12.69;64.75;101304.38;4877840;29;20029;-76
2023/04/15 10:59:08;;;;;;;3.10;1.88;;;;;;;12.78;66.24;101300.47;4861390;29;20127;-73
2023/04/15 11:02:09;;;;;;;1.90;1.60;;;;;;;12.81;62.65;101309.97;4879021;29;20459;-73
2023/04/15 11:04:58;;;;;;;3.08;1.73;;;;;;;12.68;63.38;101319.59;4877139;29;20056;-75
2023/04/15 11:07:48;;;;;;;2.22;1.85;;;;;;;12.62;64.68;101311.53;4893347;29;20051;-77
2023/04/15 11:10:17;;;;;;;4.18;2.38;;;;;;;12.64;66.57;101312.16;4883901;29;20029;-77
2023/04/15 11:12:44;;;;;;;3.58;1.83;;;;;;;12.89;67.24;101313.31;4875797;29;20037;-77
2023/04/15 11:15:27;;;;;;;14.00;3.17;;;;;;;13.14;65.73;101308.22;4858966;29;20045;-76
2023/04/15 11:17:53;;;;;;;19.48;9.25;;;;;;;13.44;66.17;101305.22;4875757;29;20386;-76
2023/04/15 11:20:19;;;;;;;10.15;6.25;;;;;;;13.65;64.53;101319.47;4875782;29;20084;-76